Time;durP1;ratioP1;P1;durP2;ratioP2;P2;SDS_P1;SDS_P2;PMS_P1;PMS_P2;Temp;Humidity;BMP_temperature;BMP_pressure;BME280_temperature;BME280_humidity;BME280_pressure;Samples;Min_cycle;Max_cycle;Signal;HPM_P1;HPM_P2
2023/11/15 00:02:20;;;;;;;8.70;3.30;;;;;;;6.93;87.42;97978.53;107231;1257;60010;-36
2023/11/15 00:04:47;;;;;;;8.90;3.40;;;;;;;6.87;87.35;97975.31;107204;1257;59522;-36
2023/11/15 00:07:15;;;;;;;10.30;3.90;;;;;;;6.86;87.56;97981.45;107237;1257;73040;-36
2023/11/15 00:09:43;;;;;;;5.20;3.20;;;;;;;6.83;87.42;97983.03;107231;1257;67564;-36
2023/11/15 00:12:11;;;;;;;7.10;3.40;;;;;;;6.86;87.31;97982.69;107219;1257;72705;-36
2023/11/15 00:14:38;;;;;;;6.90;3.60;;;;;;;6.86;87.19;97983.09;107219;1257;60060;-36
2023/11/15 00:17:07;;;;;;;6.90;3.10;;;;;;;6.83;87.32;97987.20;107221;1257;59541;-36
2023/11/15 00:19:35;;;;;;;13.00;4.20;;;;;;;6.77;87.39;97986.59;107156;1257;71741;-36
2023/11/15 00:22:04;;;;;;;10.70;3.30;;;;;;;6.74;87.35;97986.39;107090;1257;66702;-36
2023/11/15 00:24:33;;;;;;;6.70;2.90;;;;;;;6.76;87.28;97990.52;107244;1257;72945;-37
2023/11/15 00:27:01;;;;;;;8.50;3.30;;;;;;;6.77;87.20;97988.52;107245;1257;60109;-37
2023/11/15 00:29:29;;;;;;;8.70;3.30;;;;;;;6.73;87.26;97987.46;107264;1257;59842;-36
2023/11/15 00:31:57;;;;;;;6.80;3.30;;;;;;;6.69;87.38;97989.10;107250;1259;73064;-37
2023/11/15 00:34:24;;;;;;;11.40;3.60;;;;;;;6.65;87.31;97989.30;107229;1257;66321;-37
2023/11/15 00:36:53;;;;;;;7.00;2.90;;;;;;;6.68;87.30;97987.02;107281;1257;71454;-36
2023/11/15 00:39:24;;;;;;;7.20;3.20;;;;;;;6.70;87.12;97980.66;107170;1257;60308;-36
2023/11/15 00:41:51;;;;;;;8.50;3.40;;;;;;;6.68;87.27;97980.71;107125;1257;59771;-36
2023/11/15 00:44:19;;;;;;;9.50;3.60;;;;;;;6.62;87.42;97974.48;107198;1257;73031;-36
2023/11/15 00:46:47;;;;;;;8.90;3.10;;;;;;;6.61;87.52;97972.39;107029;1257;66030;-36
2023/11/15 00:49:14;;;;;;;9.80;3.20;;;;;;;6.65;87.32;97970.12;107232;1257;71688;-37
2023/11/15 00:51:42;;;;;;;7.70;3.20;;;;;;;6.67;87.25;97963.16;107067;1259;59714;-36
2023/11/15 00:54:11;;;;;;;8.10;3.10;;;;;;;6.65;87.27;97967.52;107231;1257;60039;-37
2023/11/15 00:56:39;;;;;;;8.20;3.20;;;;;;;6.61;87.22;97962.94;107252;1257;73052;-37
2023/11/15 00:59:06;;;;;;;9.60;3.20;;;;;;;6.63;87.04;97959.58;107238;1257;66365;-37
2023/11/15 01:01:34;;;;;;;7.10;3.10;;;;;;;6.67;87.02;97951.92;107233;1257;71451;-37
2023/11/15 01:04:05;;;;;;;10.90;3.80;;;;;;;6.66;86.93;97955.29;107221;1257;60241;-37
2023/11/15 01:06:33;;;;;;;17.50;3.60;;;;;;;6.63;86.96;97952.17;107257;1257;59589;-37
2023/11/15 01:09:03;;;;;;;8.40;3.00;;;;;;;6.60;87.01;97946.53;107024;1260;73109;-37
2023/11/15 01:11:31;;;;;;;;;;;;;;;6.64;86.76;97939.11;107118;1257;65981;-36
2023/11/15 01:13:58;;;;;;;7.90;3.40;;;;;;;6.66;86.64;97931.75;107080;1262;72680;-37
2023/11/15 01:16:27;;;;;;;6.80;3.30;;;;;;;6.62;86.64;97930.47;107194;1257;60104;-36
2023/11/15 01:18:54;;;;;;;9.30;3.20;;;;;;;6.57;86.75;97932.71;107231;1257;59615;-37
2023/11/15 01:21:22;;;;;;;6.10;2.80;;;;;;;6.53;86.88;97935.52;107037;1257;73090;-36
2023/11/15 01:23:50;;;;;;;11.80;3.00;;;;;;;6.56;86.73;97941.27;107071;1257;67913;-37
2023/11/15 01:26:18;;;;;;;8.50;3.00;;;;;;;6.60;86.52;97938.98;107244;1257;71218;-37
2023/11/15 01:28:46;;;;;;;8.40;3.30;;;;;;;6.56;86.53;97937.02;107157;1257;60119;-36
2023/11/15 01:31:14;;;;;;;9.80;3.50;;;;;;;6.52;86.63;97934.52;107241;1257;60509;-37
2023/11/15 01:33:43;;;;;;;8.50;3.20;;;;;;;6.50;86.73;97929.73;107072;1257;73820;-36
2023/11/15 01:36:11;;;;;;;6.20;2.80;;;;;;;6.54;86.61;97932.38;107287;1257;67447;-37
2023/11/15 01:38:40;;;;;;;7.80;2.60;;;;;;;6.57;86.53;97936.04;107233;1257;73143;-37
2023/11/15 01:41:08;;;;;;;7.30;3.40;;;;;;;6.53;86.51;97937.84;107121;1257;60090;-37
2023/11/15 01:43:36;;;;;;;10.10;3.00;;;;;;;6.48;86.48;97943.23;107287;1257;60044;-37
2023/11/15 01:46:04;;;;;;;8.10;2.60;;;;;;;6.49;86.49;97942.09;107204;1257;73047;-36
2023/11/15 01:48:32;;;;;;;7.30;2.50;;;;;;;6.52;86.31;97934.60;107161;1257;67916;-37
2023/11/15 01:51:00;;;;;;;6.80;3.10;;;;;;;6.50;86.39;97937.95;106974;1260;71425;-36
2023/11/15 01:53:28;;;;;;;8.70;3.60;;;;;;;6.45;86.47;97935.89;107054;1260;59701;-37
2023/11/15 01:55:57;;;;;;;8.50;3.20;;;;;;;6.40;86.53;97930.98;107226;1257;59638;-36
2023/11/15 01:58:25;;;;;;;9.70;3.00;;;;;;;6.41;86.36;97925.69;107058;1257;73017;-37
2023/11/15 02:00:54;;;;;;;6.90;3.00;;;;;;;6.42;86.26;97927.16;107065;1257;66629;-36
2023/11/15 02:03:22;;;;;;;6.80;3.20;;;;;;;6.37;86.31;97923.81;107103;1257;70455;-37
2023/11/15 02:05:51;;;;;;;9.90;3.40;;;;;;;6.33;86.53;97929.44;107093;1262;60132;-36
2023/11/15 02:08:19;;;;;;;5.70;2.80;;;;;;;6.30;86.62;97930.16;107085;1263;60528;-37
2023/11/15 02:10:47;;;;;;;8.30;2.90;;;;;;;6.32;86.59;97937.43;107083;1257;71763;-37
2023/11/15 02:13:22;;;;;;;5.80;3.00;;;;;;;6.36;86.43;97938.23;107065;1257;65297;-37
2023/11/15 02:15:52;;;;;;;7.10;3.10;;;;;;;6.36;86.55;97935.86;107093;1257;72997;-37
2023/11/15 02:18:21;;;;;;;8.60;3.10;;;;;;;6.34;86.68;97934.14;107043;1257;60759;-37
2023/11/15 02:20:50;;;;;;;7.50;3.10;;;;;;;6.34;86.74;97936.77;107059;1257;60054;-37
2023/11/15 02:23:22;;;;;;;7.40;2.80;;;;;;;6.38;86.63;97940.41;107090;1257;73387;-37
2023/11/15 02:25:52;;;;;;;6.30;3.20;;;;;;;6.44;86.56;97940.81;107113;1257;66321;-37
2023/11/15 02:28:20;;;;;;;7.60;3.10;;;;;;;6.45;86.63;97945.98;107067;1256;72763;-37
2023/11/15 02:30:48;;;;;;;10.10;3.50;;;;;;;6.44;86.86;97944.56;107215;1257;60088;-37
2023/11/15 02:33:16;;;;;;;6.90;2.80;;;;;;;6.45;86.99;97946.27;107025;1257;59158;-37
2023/11/15 02:35:44;;;;;;;10.70;3.30;;;;;;;6.52;86.91;97950.45;106956;1257;74190;-37
2023/11/15 02:38:11;;;;;;;9.60;3.10;;;;;;;6.60;86.71;97949.68;107103;1261;67560;-37
2023/11/15 02:40:39;;;;;;;5.90;3.00;;;;;;;6.62;86.90;97951.41;107084;1260;73119;-37
2023/11/15 02:43:13;;;;;;;8.00;3.30;;;;;;;6.61;87.09;97952.39;107110;1257;60813;-37
2023/11/15 02:45:43;;;;;;;8.40;2.90;;;;;;;6.64;87.16;97952.66;107104;1257;60420;-37
2023/11/15 02:48:11;;;;;;;6.90;3.30;;;;;;;6.71;87.12;97952.81;107132;1257;72662;-37
2023/11/15 02:50:38;;;;;;;11.10;3.00;;;;;;;6.77;86.98;97957.58;107181;1257;67590;-37
2023/11/15 02:53:06;;;;;;;8.10;3.00;;;;;;;6.78;86.97;97960.50;107157;1257;72795;-37
2023/11/15 02:55:33;;;;;;;6.70;3.20;;;;;;;6.76;86.91;97960.80;107177;1258;61712;-37
2023/11/15 02:58:03;;;;;;;7.80;3.00;;;;;;;6.81;86.84;97961.09;107225;1257;60241;-37
2023/11/15 03:00:31;;;;;;;7.70;3.10;;;;;;;6.87;86.48;97961.68;107065;1261;72558;-37
2023/11/15 03:02:59;;;;;;;8.40;3.40;;;;;;;6.87;86.36;97960.53;107247;1257;66273;-37
2023/11/15 03:05:27;;;;;;;6.00;3.10;;;;;;;6.84;86.27;97958.73;107200;1257;72689;-37
2023/11/15 03:07:55;;;;;;;7.10;3.60;;;;;;;6.82;86.07;97963.25;107161;1257;61711;-36
2023/11/15 03:10:23;;;;;;;7.20;3.10;;;;;;;6.83;85.79;97966.27;107249;1257;59251;-36
2023/11/15 03:12:51;;;;;;;6.80;3.40;;;;;;;6.84;85.56;97970.50;107244;1257;73859;-37
2023/11/15 03:15:19;;;;;;;8.20;3.30;;;;;;;6.78;85.61;97972.44;107237;1256;66642;-37
2023/11/15 03:17:46;;;;;;;8.80;3.20;;;;;;;6.73;85.66;97972.70;107036;1260;71460;-37
2023/11/15 03:20:14;;;;;;;6.90;3.30;;;;;;;6.70;85.66;97973.96;107227;1257;61691;-37
2023/11/15 03:22:41;;;;;;;5.30;2.60;;;;;;;6.72;85.48;97968.15;107247;1257;60316;-37
2023/11/15 03:25:09;;;;;;;8.50;3.30;;;;;;;6.73;85.37;97969.61;107051;1257;72297;-37
2023/11/15 03:27:37;;;;;;;8.60;3.00;;;;;;;6.67;85.41;97969.61;107110;1257;67609;-37
2023/11/15 03:30:05;;;;;;;8.70;3.20;;;;;;;6.61;85.61;97970.02;107216;1257;72652;-37
2023/11/15 03:32:33;;;;;;;10.70;3.30;;;;;;;6.56;85.54;97965.95;107125;1260;61679;-37
2023/11/15 03:35:01;;;;;;;10.50;2.90;;;;;;;6.58;85.36;97965.43;107163;1257;60486;-37
2023/11/15 03:37:29;;;;;;;7.60;3.50;;;;;;;6.59;85.36;97969.05;107212;1257;72880;-37
2023/11/15 03:39:57;;;;;;;6.70;3.10;;;;;;;6.54;85.49;97972.23;107207;1257;67806;-37
2023/11/15 03:42:24;;;;;;;6.50;3.40;;;;;;;6.49;85.77;97985.70;107206;1257;71393;-36
2023/11/15 03:44:53;;;;;;;8.40;3.10;;;;;;;6.46;85.78;97992.13;107205;1263;60457;-36
2023/11/15 03:47:21;;;;;;;6.80;3.70;;;;;;;6.48;85.64;97993.94;107266;1257;60447;-37
2023/11/15 03:49:49;;;;;;;7.30;3.50;;;;;;;6.51;85.68;97983.13;107211;1257;73819;-36
2023/11/15 03:52:16;;;;;;;8.20;3.40;;;;;;;6.51;85.77;97979.27;107223;1257;68335;-36
2023/11/15 03:54:44;;;;;;;7.50;3.20;;;;;;;6.49;85.89;97984.02;107050;1257;72281;-36
2023/11/15 03:57:12;;;;;;;7.60;2.90;;;;;;;6.46;85.92;97991.83;107067;1256;61710;-36
2023/11/15 03:59:39;;;;;;;8.30;3.00;;;;;;;6.49;85.85;97996.64;107099;1257;60141;-37
2023/11/15 04:02:07;;;;;;;8.20;3.40;;;;;;;6.53;85.67;97997.30;107087;1262;72916;-36
2023/11/15 04:04:37;;;;;;;8.00;3.20;;;;;;;6.53;85.67;97989.92;107222;1257;67579;-36
2023/11/15 04:07:05;;;;;;;8.30;3.40;;;;;;;6.52;85.76;97997.36;107043;1257;72718;-37
2023/11/15 04:09:33;;;;;;;9.60;3.50;;;;;;;6.51;85.78;97993.11;107211;1257;61721;-36
2023/11/15 04:12:01;;;;;;;7.50;3.30;;;;;;;6.53;85.48;97995.00;107220;1256;60048;-36
2023/11/15 04:14:28;;;;;;;6.90;2.80;;;;;;;6.60;85.30;97994.99;107050;1257;73844;-37
2023/11/15 04:16:56;;;;;;;11.90;3.70;;;;;;;6.60;85.07;97995.61;107203;1257;67719;-37
2023/11/15 04:19:24;;;;;;;10.10;3.60;;;;;;;6.54;85.16;98002.08;107221;1260;72660;-37
2023/11/15 04:21:52;;;;;;;6.60;3.20;;;;;;;6.49;85.22;98002.40;107202;1262;60461;-37
2023/11/15 04:24:38;;;;;;;6.70;2.80;;;;;;;6.51;85.17;98003.20;107002;1257;59791;-37
2023/11/15 04:27:07;;;;;;;8.70;3.50;;;;;;;6.55;85.08;98001.94;107226;1257;73847;-37
2023/11/15 04:29:37;;;;;;;10.50;3.40;;;;;;;6.52;85.20;98005.36;107316;1257;67948;-37
2023/11/15 04:32:06;;;;;;;8.20;3.20;;;;;;;6.45;85.37;98009.29;107224;1262;72670;-37
2023/11/15 04:34:33;;;;;;;7.30;3.60;;;;;;;6.42;85.72;98007.15;107206;1257;61700;-37
2023/11/15 04:37:02;;;;;;;5.90;2.80;;;;;;;6.44;85.74;98005.27;107236;1257;60437;-37
2023/11/15 04:39:30;;;;;;;8.60;3.30;;;;;;;6.48;85.71;98006.31;107259;1257;74353;-37
2023/11/15 04:41:57;;;;;;;6.30;3.20;;;;;;;6.47;85.76;98011.55;107218;1257;67576;-37
2023/11/15 04:44:27;;;;;;;10.50;3.70;;;;;;;6.44;86.00;98012.72;107227;1261;72714;-37
2023/11/15 04:46:55;;;;;;;9.60;3.30;;;;;;;6.41;86.03;98011.91;107193;1260;61649;-37
2023/11/15 04:49:22;;;;;;;9.00;3.70;;;;;;;6.46;85.88;98010.52;107074;1257;59743;-37
2023/11/15 04:51:50;;;;;;;11.50;4.50;;;;;;;6.49;85.72;98015.02;107176;1257;73878;-37
2023/11/15 04:54:17;;;;;;;7.20;3.30;;;;;;;6.48;85.70;98020.23;107224;1257;67984;-37
2023/11/15 04:56:45;;;;;;;7.30;4.00;;;;;;;6.46;85.71;98020.52;107222;1257;72653;-37
2023/11/15 04:59:13;;;;;;;8.10;3.20;;;;;;;6.43;85.49;98026.24;107206;1257;60692;-37
2023/11/15 05:01:45;;;;;;;9.30;3.30;;;;;;;6.46;85.35;98027.29;107212;1257;60318;-37
2023/11/15 05:04:14;;;;;;;8.10;3.50;;;;;;;6.49;85.35;98029.16;107190;1257;73858;-37
2023/11/15 05:06:42;;;;;;;10.60;3.40;;;;;;;6.48;85.42;98026.55;107204;1257;67573;-37
2023/11/15 05:09:10;;;;;;;6.60;3.20;;;;;;;6.47;85.49;98027.99;107199;1257;72733;-37
2023/11/15 05:11:37;;;;;;;8.10;3.30;;;;;;;6.47;85.50;98029.84;107194;1257;60469;-37
2023/11/15 05:14:06;;;;;;;9.40;3.20;;;;;;;6.50;85.33;98027.42;107071;1256;60398;-37
2023/11/15 05:16:34;;;;;;;6.50;3.30;;;;;;;6.57;85.11;98032.42;107111;1257;73839;-37
2023/11/15 05:19:02;;;;;;;8.90;4.00;;;;;;;6.59;85.05;98034.59;107134;1257;68081;-37
2023/11/15 05:21:29;;;;;;;6.80;3.60;;;;;;;6.56;85.06;98034.58;107094;1261;71864;-37
2023/11/15 05:23:57;;;;;;;7.30;2.90;;;;;;;6.55;85.03;98037.94;107194;1262;61678;-37
2023/11/15 05:26:25;;;;;;;8.10;2.80;;;;;;;6.59;84.82;98039.06;107224;1257;60562;-37
2023/11/15 05:28:53;;;;;;;7.60;3.30;;;;;;;6.64;84.77;98036.36;107200;1257;72514;-37
2023/11/15 05:31:20;;;;;;;7.30;3.60;;;;;;;6.67;84.72;98038.79;107248;1257;67574;-37
2023/11/15 05:33:48;;;;;;;8.60;3.10;;;;;;;6.66;84.77;98036.55;107232;1262;72719;-37
2023/11/15 05:36:16;;;;;;;8.00;3.40;;;;;;;6.68;84.97;98040.18;107241;1262;60409;-37
2023/11/15 05:38:45;;;;;;;8.00;3.10;;;;;;;6.74;84.75;98041.11;107219;1257;59175;-37
2023/11/15 05:41:13;;;;;;;6.40;3.40;;;;;;;6.83;84.62;98035.77;107236;1257;73862;-37
2023/11/15 05:43:41;;;;;;;10.00;4.40;;;;;;;6.89;84.60;98032.98;107236;1257;67720;-37
2023/11/15 05:46:08;;;;;;;9.30;3.70;;;;;;;6.93;84.60;98033.19;107226;1257;72812;-37
2023/11/15 05:48:36;;;;;;;7.80;3.40;;;;;;;6.97;84.56;98040.17;107265;1258;60540;-37
2023/11/15 05:51:06;;;;;;;7.80;3.20;;;;;;;7.01;84.59;98041.75;107244;1257;60092;-37
2023/11/15 05:53:35;;;;;;;9.70;4.30;;;;;;;7.10;84.30;98047.85;107268;1256;73867;-37
2023/11/15 05:56:04;;;;;;;9.50;3.60;;;;;;;7.19;84.01;98046.25;107227;1262;68142;-37
2023/11/15 05:58:33;;;;;;;15.10;4.40;;;;;;;7.22;84.09;98044.83;107234;1258;71493;-37
2023/11/15 06:01:01;;;;;;;7.20;3.40;;;;;;;7.24;84.14;98040.70;107503;1254;60459;-37
2023/11/15 06:03:29;;;;;;;10.60;3.60;;;;;;;7.27;83.87;98055.20;107505;1254;60012;-37
2023/11/15 06:05:56;;;;;;;9.70;3.70;;;;;;;7.32;83.51;98050.73;107509;1254;73847;-37
2023/11/15 06:08:24;;;;;;;8.30;3.70;;;;;;;7.38;82.89;98058.17;107524;1254;67635;-37
2023/11/15 06:10:53;;;;;;;11.30;4.50;;;;;;;7.37;82.63;98057.16;107497;1254;71448;-37
2023/11/15 06:13:21;;;;;;;8.50;3.40;;;;;;;7.33;82.32;98063.43;107468;1254;59262;-37
2023/11/15 06:15:48;;;;;;;10.80;5.60;;;;;;;7.29;82.50;98068.71;107496;1254;60365;-37
2023/11/15 06:18:16;;;;;;;10.00;3.90;;;;;;;7.27;82.50;98068.52;107495;1254;72642;-37
2023/11/15 06:20:44;;;;;;;8.10;3.90;;;;;;;7.31;82.51;98069.51;107494;1259;67608;-37
2023/11/15 06:23:11;;;;;;;10.00;5.00;;;;;;;7.37;82.30;98072.56;107506;1254;72673;-37
2023/11/15 06:25:39;;;;;;;8.40;3.80;;;;;;;7.39;82.38;98069.60;107488;1253;60388;-37
2023/11/15 06:28:11;;;;;;;7.70;3.70;;;;;;;7.39;82.32;98070.91;107569;1254;60869;-37
2023/11/15 06:30:38;;;;;;;8.40;3.80;;;;;;;7.37;82.23;98070.79;107511;1254;74387;-37
2023/11/15 06:33:06;;;;;;;9.50;3.50;;;;;;;7.36;82.15;98077.72;107358;1254;67572;-37
2023/11/15 06:35:35;;;;;;;9.00;3.40;;;;;;;7.38;81.94;98074.13;107391;1257;72828;-37
2023/11/15 06:38:04;;;;;;;10.00;3.40;;;;;;;7.38;82.18;98072.66;107423;1259;60341;-37
2023/11/15 06:40:32;;;;;;;11.40;4.10;;;;;;;7.35;82.36;98071.56;107516;1253;60481;-37
2023/11/15 06:43:00;;;;;;;10.50;3.40;;;;;;;7.35;82.41;98071.80;107489;1258;73843;-37
2023/11/15 06:45:28;;;;;;;8.00;3.40;;;;;;;7.39;82.26;98070.36;107431;1254;67954;-37
2023/11/15 06:47:56;;;;;;;8.50;3.30;;;;;;;7.42;81.86;98071.48;107467;1254;71465;-37
2023/11/15 06:50:25;;;;;;;9.40;3.60;;;;;;;7.41;82.14;98071.38;107507;1254;60559;-37
2023/11/15 06:52:53;;;;;;;11.90;4.50;;;;;;;7.37;82.11;98070.19;107497;1254;60463;-37
2023/11/15 06:55:21;;;;;;;7.40;3.60;;;;;;;7.36;82.28;98063.85;107495;1259;72062;-37
2023/11/15 06:57:49;;;;;;;9.00;3.10;;;;;;;7.42;82.19;98063.61;107527;1254;66394;-37
2023/11/15 07:00:17;;;;;;;7.20;3.00;;;;;;;7.48;82.00;98063.36;107481;1254;72690;-37
2023/11/15 07:02:45;;;;;;;9.50;3.60;;;;;;;7.50;82.02;98062.16;107397;1254;60553;-37
2023/11/15 07:05:13;;;;;;;6.10;3.30;;;;;;;7.51;82.09;98066.30;107462;1254;60506;-37
2023/11/15 07:07:41;;;;;;;9.10;3.60;;;;;;;7.52;82.28;98066.55;107383;1255;74270;-37
2023/11/15 07:10:09;;;;;;;7.30;3.20;;;;;;;7.59;82.29;98068.47;107406;1254;66422;-37
2023/11/15 07:12:38;;;;;;;8.60;3.50;;;;;;;7.66;82.25;98067.70;107450;1259;71367;-37
2023/11/15 07:15:14;;;;;;;9.70;3.60;;;;;;;7.71;82.05;98072.91;107389;1254;60565;-37
2023/11/15 07:17:43;;;;;;;8.50;3.60;;;;;;;7.73;81.93;98073.64;107416;1254;60300;-37
2023/11/15 07:20:11;;;;;;;10.80;3.90;;;;;;;7.74;81.95;98073.17;107533;1254;73844;-37
2023/11/15 07:22:38;;;;;;;8.70;3.60;;;;;;;7.77;81.86;98071.20;107524;1254;66491;-37
2023/11/15 07:25:07;;;;;;;13.80;4.30;;;;;;;7.82;81.40;98071.85;107494;1259;72686;-37
2023/11/15 07:27:36;;;;;;;9.90;3.90;;;;;;;7.81;81.30;98067.29;107519;1254;60348;-37
2023/11/15 07:30:07;;;;;;;8.00;3.70;;;;;;;7.80;81.49;98065.27;107497;1259;60450;-37
2023/11/15 07:32:38;;;;;;;9.30;4.40;;;;;;;7.82;81.57;98067.15;107491;1254;73851;-37
2023/11/15 07:35:08;;;;;;;6.90;3.20;;;;;;;7.93;81.35;98070.71;107541;1254;66299;-37
2023/11/15 07:37:37;;;;;;;11.70;3.70;;;;;;;8.03;81.18;98070.10;107493;1259;72704;-37
2023/11/15 07:40:10;;;;;;;11.20;4.00;;;;;;;8.06;81.06;98072.06;107483;1254;60550;-37
2023/11/15 07:42:39;;;;;;;12.80;3.90;;;;;;;8.09;80.89;98073.31;107541;1254;60493;-37
2023/11/15 07:45:10;;;;;;;9.00;3.40;;;;;;;8.14;81.03;98069.11;107502;1254;73756;-37
2023/11/15 07:47:38;;;;;;;7.70;3.70;;;;;;;8.26;80.68;98065.50;107457;1254;68131;-37
2023/11/15 07:50:10;;;;;;;8.60;4.30;;;;;;;8.38;79.77;98066.30;107406;1254;72739;-37
2023/11/15 07:52:39;;;;;;;8.10;4.00;;;;;;;8.41;79.53;98064.79;107435;1259;60151;-37
2023/11/15 07:55:07;;;;;;;7.20;3.90;;;;;;;8.39;78.93;98065.00;106610;1254;1002949;-37
2023/11/15 07:57:35;;;;;;;16.90;3.90;;;;;;;8.36;78.88;98059.04;107463;1254;73821;-37
2023/11/15 08:00:04;;;;;;;7.90;3.80;;;;;;;8.37;78.89;98057.58;107429;1254;66370;-37
2023/11/15 08:02:38;;;;;;;9.40;3.50;;;;;;;8.42;78.72;98055.84;107399;1259;71844;-37
2023/11/15 08:05:07;;;;;;;10.90;4.10;;;;;;;8.43;78.78;98058.30;107457;1255;60389;-37
2023/11/15 08:07:36;;;;;;;10.60;3.60;;;;;;;8.43;78.91;98061.23;107508;1253;60409;-37
2023/11/15 08:10:05;;;;;;;9.30;4.00;;;;;;;8.44;79.15;98060.16;107495;1259;71920;-37
2023/11/15 08:12:35;;;;;;;7.70;3.70;;;;;;;8.52;79.19;98056.98;107482;1259;67671;-37
2023/11/15 08:15:05;;;;;;;9.60;3.70;;;;;;;8.59;78.72;98052.69;107490;1259;72718;-37
2023/11/15 08:17:35;;;;;;;10.00;4.10;;;;;;;8.59;78.87;98049.08;107570;1257;60283;-37
2023/11/15 08:20:09;;;;;;;10.90;3.90;;;;;;;8.62;79.11;98048.39;107636;1255;60434;-37
2023/11/15 08:22:37;;;;;;;8.90;3.10;;;;;;;8.68;78.93;98047.11;107654;1254;73845;-37
2023/11/15 08:25:09;;;;;;;7.60;3.30;;;;;;;8.82;78.61;98046.64;107633;1254;67816;-37
2023/11/15 08:27:38;;;;;;;12.50;4.50;;;;;;;8.92;78.44;98047.69;107608;1256;72638;-37
2023/11/15 08:30:14;;;;;;;8.20;3.50;;;;;;;8.98;77.43;98048.25;107684;1257;60289;-37
2023/11/15 08:32:47;;;;;;;10.30;3.90;;;;;;;9.00;77.34;98052.50;107581;1256;60002;-37
2023/11/15 08:35:17;;;;;;;12.30;4.40;;;;;;;9.05;77.54;98053.60;107538;1254;72587;-37
2023/11/15 08:37:45;;;;;;;10.20;4.20;;;;;;;9.12;77.51;98058.51;107601;1254;67843;-37
2023/11/15 08:40:13;;;;;;;9.90;3.70;;;;;;;9.18;77.55;98054.42;107603;1260;71120;-37
2023/11/15 08:42:55;;;;;;;12.80;4.30;;;;;;;9.19;76.52;98050.96;107597;1257;60498;-37
2023/11/15 08:45:23;;;;;;;9.30;3.60;;;;;;;9.14;75.94;98047.54;107658;1257;60029;-37
2023/11/15 08:47:51;;;;;;;10.40;4.10;;;;;;;9.12;76.00;98045.30;107582;1253;73857;-37
2023/11/15 08:50:22;;;;;;;7.60;3.60;;;;;;;9.20;75.78;98041.68;107594;1254;70157;-37
2023/11/15 08:52:49;;;;;;;9.20;3.60;;;;;;;9.30;76.15;98037.85;107599;1253;71392;-37
2023/11/15 08:55:18;;;;;;;8.00;3.70;;;;;;;9.43;76.13;98037.27;107440;1254;60973;-37
2023/11/15 08:57:46;;;;;;;9.60;3.50;;;;;;;9.61;75.61;98026.16;107571;1252;60325;-37
2023/11/15 09:00:15;;;;;;;7.80;3.70;;;;;;;9.81;73.95;98027.48;108248;1254;74071;-40
2023/11/15 09:02:48;;;;;;;8.30;3.60;;;;;;;10.02;73.55;98026.80;107278;1256;67597;-42
2023/11/15 09:05:19;;;;;;;10.10;4.70;;;;;;;10.19;71.97;98020.69;107221;1256;73797;-42
2023/11/15 09:07:47;;;;;;;8.50;3.80;;;;;;;10.31;71.46;98016.73;107326;1257;60567;-42
2023/11/15 09:10:16;;;;;;;8.30;4.20;;;;;;;10.40;70.72;98020.13;107240;1255;60322;-42
2023/11/15 09:12:47;;;;;;;9.70;3.60;;;;;;;10.48;70.23;98024.36;107237;1255;74965;-42
2023/11/15 09:15:15;;;;;;;8.10;3.50;;;;;;;10.57;69.09;98019.30;107254;1257;67604;-42
2023/11/15 09:17:46;;;;;;;7.90;3.80;;;;;;;10.61;68.55;98014.88;107261;1256;71477;-42
2023/11/15 09:20:19;;;;;;;8.20;3.70;;;;;;;10.62;68.89;98011.55;107333;1257;60560;-42
2023/11/15 09:22:49;;;;;;;9.10;3.90;;;;;;;10.68;69.10;98002.46;107359;1255;60458;-42
2023/11/15 09:25:30;;;;;;;;;;;;;;;10.75;68.11;98002.14;107340;1257;72684;-42
2023/11/15 09:27:59;;;;;;;7.50;3.70;;;;;;;10.80;68.43;98002.42;107361;1256;67872;-42
2023/11/15 09:30:30;;;;;;;7.20;3.40;;;;;;;10.84;68.07;98000.47;107356;1257;73119;-42
2023/11/15 09:32:59;;;;;;;14.20;4.50;;;;;;;10.83;68.20;97993.81;107321;1257;60445;-42
2023/11/15 09:35:28;;;;;;;9.30;4.10;;;;;;;10.80;68.58;97992.05;107331;1256;60319;-41
2023/11/15 09:37:59;;;;;;;9.60;4.00;;;;;;;10.78;68.84;97992.06;107337;1254;74812;-41
2023/11/15 09:40:27;;;;;;;8.30;4.00;;;;;;;10.75;68.86;97993.38;107361;1255;66337;-41
2023/11/15 09:42:56;;;;;;;9.00;3.70;;;;;;;10.77;68.76;97989.42;107278;1256;74532;-41
2023/11/15 09:45:23;;;;;;;10.90;4.20;;;;;;;10.84;68.52;97981.96;107251;1257;60436;-41
2023/11/15 09:47:56;;;;;;;9.30;4.00;;;;;;;10.87;69.34;97989.77;107330;1256;60421;-41
2023/11/15 09:50:31;;;;;;;11.90;5.30;;;;;;;10.87;68.99;97988.99;107302;1256;74986;-41
2023/11/15 09:53:02;;;;;;;9.40;4.30;;;;;;;10.85;69.33;97991.86;107334;1257;66532;-41
2023/11/15 09:55:30;;;;;;;8.90;4.20;;;;;;;10.83;69.41;97990.73;107224;1256;72705;-41
2023/11/15 09:57:57;;;;;;;9.40;3.70;;;;;;;10.87;69.72;97986.66;107286;1257;62081;-41
2023/11/15 10:00:29;;;;;;;7.70;4.10;;;;;;;10.93;69.12;97983.64;107267;1256;60323;-41
2023/11/15 10:02:57;;;;;;;9.10;4.40;;;;;;;10.89;68.86;97981.23;107359;1256;73844;-42
2023/11/15 10:05:29;;;;;;;8.80;4.20;;;;;;;10.85;69.30;97982.27;107353;1257;69792;-41
2023/11/15 10:08:10;;;;;;;10.00;4.20;;;;;;;10.81;69.06;97981.66;107332;1255;72712;-41
2023/11/15 10:10:40;;;;;;;9.30;3.80;;;;;;;10.79;68.80;97986.55;107348;1257;61717;-41
2023/11/15 10:13:15;;;;;;;12.40;4.30;;;;;;;10.85;69.43;97985.52;107322;1254;60338;-41
2023/11/15 10:15:46;;;;;;;9.00;4.40;;;;;;;10.86;69.42;97986.83;107344;1254;76075;-41
2023/11/15 10:18:15;;;;;;;11.60;4.00;;;;;;;10.86;69.60;97980.40;107339;1256;67327;-41
2023/11/15 10:20:43;;;;;;;8.90;4.00;;;;;;;10.85;69.63;97980.64;107382;1257;72123;-41
2023/11/15 10:23:12;;;;;;;10.80;3.60;;;;;;;10.85;70.00;97979.63;107367;1257;60421;-41
2023/11/15 10:25:47;;;;;;;7.40;3.80;;;;;;;10.93;69.81;97973.86;107374;1256;60470;-41
2023/11/15 10:28:16;;;;;;;8.00;3.90;;;;;;;11.05;69.10;97967.91;107383;1254;72627;-41
2023/11/15 10:30:48;;;;;;;14.00;4.00;;;;;;;11.15;69.32;97972.59;107375;1254;66597;-42
2023/11/15 10:33:17;;;;;;;8.40;3.90;;;;;;;11.24;69.00;97970.81;107240;1257;74923;-41
2023/11/15 10:38:59;;;;;;;7.50;4.60;;;;;;;11.61;67.47;97967.39;104072;1292;616072;-40
2023/11/15 10:41:29;;;;;;;13.10;4.50;;;;;;;11.92;66.55;97967.15;106785;1267;63013;-40
2023/11/15 10:43:56;;;;;;;9.80;4.40;;;;;;;12.16;65.14;97969.95;106789;1267;61243;-40
2023/11/15 10:46:30;;;;;;;9.60;4.20;;;;;;;12.28;64.59;97971.01;106768;1269;71207;-40
2023/11/15 10:48:59;;;;;;;10.90;4.40;;;;;;;12.36;64.74;97968.52;106724;1270;69128;-40
2023/11/15 10:51:41;;;;;;;9.70;4.60;;;;;;;12.48;64.39;97971.34;104272;1264;3187711;-41
2023/11/15 10:54:09;;;;;;;10.70;4.40;;;;;;;12.61;63.47;97967.77;106786;1265;59182;-41
2023/11/15 10:56:37;;;;;;;10.20;4.30;;;;;;;12.75;63.33;97966.67;106706;1264;60572;-41
2023/11/15 10:59:04;;;;;;;9.20;4.10;;;;;;;12.88;62.66;97973.58;106723;1264;73407;-41
2023/11/15 11:01:34;;;;;;;8.80;4.70;;;;;;;13.06;61.75;97976.61;106796;1264;67668;-41
2023/11/15 11:04:05;;;;;;;11.50;4.90;;;;;;;13.15;61.25;97978.69;106783;1268;74031;-42
2023/11/15 11:06:50;;;;;;;11.00;4.20;;;;;;;13.23;61.25;97976.80;106796;1268;61467;-42
2023/11/15 11:09:30;;;;;;;10.70;4.70;;;;;;;13.37;60.58;97974.80;106762;1268;61682;-42
2023/11/15 11:12:11;;;;;;;11.90;4.60;;;;;;;13.49;59.74;97971.91;106783;1269;74100;-41
2023/11/15 11:14:38;;;;;;;10.90;5.10;;;;;;;13.51;59.62;97968.22;106738;1264;68455;-41
2023/11/15 11:17:31;;;;;;;10.10;4.80;;;;;;;13.40;59.64;97967.92;106821;1264;72996;-41
2023/11/15 11:20:02;;;;;;;11.10;4.80;;;;;;;13.17;60.48;97970.89;106783;1264;59544;-41
2023/11/15 11:22:30;;;;;;;11.80;5.70;;;;;;;12.94;61.37;97974.98;106836;1264;60371;-41
2023/11/15 11:25:10;;;;;;;12.20;4.80;;;;;;;12.74;61.84;97973.21;106858;1267;74683;-41
2023/11/15 11:27:42;;;;;;;14.10;5.20;;;;;;;12.60;62.62;97972.82;106814;1268;69249;-41
2023/11/15 11:30:20;;;;;;;11.20;5.00;;;;;;;12.52;63.22;97969.82;106832;1269;73755;-41
2023/11/15 11:32:49;;;;;;;11.50;5.10;;;;;;;12.39;63.33;97979.11;106881;1269;59640;-41
2023/11/15 11:35:22;;;;;;;9.90;4.80;;;;;;;12.25;63.39;97977.00;106826;1264;59412;-41
2023/11/15 11:37:55;;;;;;;13.40;5.70;;;;;;;12.12;63.79;97984.27;106863;1265;74288;-41
2023/11/15 11:40:32;;;;;;;12.50;5.20;;;;;;;12.00;64.15;97985.48;106822;1264;69188;-41
2023/11/15 11:43:15;;;;;;;11.80;4.90;;;;;;;11.90;64.58;97987.66;106834;1264;73747;-41